.
WxDataArchive / Data Records for 2008-05-10
2008-05-09 May 2008 2008-05-11

Data Records for Saturday, 10 May 2008

Time	Temp	Chill	HIndex	Humid	Dewpt	 Wind 	HiWind	WindDir	Rain 	Barom 
-----	----	-----	------	-----	-----	------	------	-------	-----	----- 
00:00	45.7	45.7	45.7	95	44.4	0	0	---	0.00	29.814 
00:05	45.5	45.5	45.5	95	44.2	0	0	---	0.00	29.812 
00:10	45.2	45.2	45.2	95	43.9	0	0	---	0.00	29.812 
00:15	45.1	45.1	45.1	95	43.8	0	0	---	0.00	29.813 
00:20	44.9	44.9	44.9	95	43.6	0	0	---	0.00	29.813 
00:25	44.9	44.9	44.9	95	43.6	0	0	---	0.00	29.813 
00:30	44.9	44.9	44.9	95	43.6	0	0	---	0.00	29.814 
00:35	44.6	44.6	44.6	95	43.3	0	0	---	0.00	29.814 
00:40	44.5	44.5	44.5	95	43.2	0	0	---	0.00	29.815 
00:45	44.2	44.2	44.2	95	42.9	0	0	---	0.00	29.816 
00:50	44.1	44.1	44.1	95	42.8	0	0	---	0.00	29.815 
00:55	43.9	43.9	43.9	95	42.6	0	0	---	0.00	29.815 
01:00	43.8	43.8	43.8	95	42.5	0	0	---	0.00	29.815 
01:05	43.6	43.6	43.6	95	42.3	0	0	---	0.00	29.813 
01:10	43.3	43.3	43.3	95	42.0	0	0	---	0.00	29.812 
01:15	43.2	43.2	43.2	95	41.9	0	0	---	0.00	29.813 
01:20	42.9	42.9	42.9	95	41.6	0	0	---	0.00	29.813 
01:25	42.8	42.8	42.8	95	41.5	0	0	---	0.00	29.813 
01:30	42.8	42.8	42.8	95	41.5	0	0	---	0.00	29.814 
01:35	42.6	42.6	42.6	96	41.5	0	0	---	0.00	29.815 
01:40	42.6	42.6	42.6	96	41.5	0	0	---	0.00	29.818 
01:45	42.6	42.6	42.6	96	41.5	0	0	---	0.00	29.819 
01:50	42.5	42.5	42.5	96	41.4	0	0	---	0.00	29.820 
01:55	42.3	42.3	42.3	96	41.2	0	0	---	0.00	29.824 
02:00	42.2	42.2	42.2	96	41.1	0	0	---	0.00	29.825 
02:05	42.1	42.1	42.1	96	41.0	0	0	---	0.00	29.823 
02:10	41.9	41.9	41.9	96	40.8	0	0	---	0.00	29.826 
02:15	41.8	41.8	41.8	96	40.7	0	0	---	0.00	29.824 
02:20	41.6	41.6	41.6	96	40.5	0	0	---	0.00	29.824 
02:25	41.5	41.5	41.5	96	40.4	0	0	---	0.00	29.824 
02:30	41.3	41.3	41.3	96	40.2	0	0	---	0.00	29.828 
02:35	41.2	41.2	41.2	96	40.1	0	0	---	0.00	29.830 
02:40	41.1	41.1	41.1	96	40.0	0	0	---	0.00	29.830 
02:45	40.9	40.9	40.9	96	39.8	0	0	---	0.00	29.831 
02:50	40.8	40.8	40.8	96	39.7	0	0	---	0.00	29.833 
02:55	40.6	40.6	40.6	96	39.5	0	0	---	0.00	29.836 
03:00	40.6	40.6	40.6	96	39.5	0	0	---	0.00	29.833 
03:05	40.5	40.5	40.5	96	39.5	0	0	---	0.00	29.835 
03:10	40.3	40.3	40.3	96	39.3	0	0	---	0.00	29.837 
03:15	40.5	40.5	40.5	96	39.5	0	0	---	0.00	29.837 
03:20	40.5	40.5	40.5	96	39.5	0	0	---	0.00	29.838 
03:25	40.5	40.5	40.5	96	39.5	0	0	---	0.00	29.839 
03:30	40.3	40.3	40.3	96	39.3	0	0	---	0.00	29.840 
03:35	40.3	40.3	40.3	96	39.3	0	0	---	0.00	29.842 
03:40	40.2	40.2	40.2	96	39.2	0	0	---	0.00	29.846 
03:45	40.1	40.1	40.1	96	39.1	0	0	---	0.00	29.847 
03:50	40.1	40.1	40.1	96	39.1	0	0	---	0.00	29.846 
03:55	40.1	40.1	40.1	96	39.1	0	0	---	0.00	29.844 
04:00	39.9	39.9	39.9	96	38.9	0	0	---	0.00	29.841 
04:05	39.9	39.9	39.9	96	38.9	0	0	---	0.00	29.843 
04:10	39.9	39.9	39.9	96	38.9	0	0	---	0.00	29.843 
04:15	39.9	39.9	39.9	96	38.9	0	0	---	0.00	29.844 
04:20	39.8	39.8	39.8	96	38.8	0	0	---	0.00	29.844 
04:25	39.8	39.8	39.8	96	38.8	0	0	---	0.00	29.846 
04:30	39.8	39.8	39.8	96	38.8	0	0	---	0.00	29.845 
04:35	39.8	39.8	39.8	96	38.8	0	0	---	0.00	29.847 
04:40	39.9	39.9	39.9	96	38.9	0	0	---	0.00	29.849 
04:45	39.9	39.9	39.9	96	38.9	0	0	---	0.00	29.851 
04:50	39.8	39.8	39.8	96	38.8	0	0	---	0.00	29.853 
04:55	39.8	39.8	39.8	96	38.8	0	0	---	0.00	29.857 
05:00	39.8	39.8	39.8	96	38.8	0	0	---	0.00	29.860 
05:05	39.6	39.6	39.6	96	38.6	0	0	---	0.00	29.864 
05:10	39.5	39.5	39.5	96	38.5	0	0	---	0.00	29.867 
05:15	39.5	39.5	39.5	96	38.5	0	0	---	0.00	29.869 
05:20	39.5	39.5	39.5	96	38.5	0	0	---	0.00	29.872 
05:25	39.5	39.5	39.5	96	38.5	0	0	---	0.00	29.878 
05:30	39.5	39.5	39.5	96	38.5	0	0	---	0.00	29.880 
05:35	39.3	39.3	39.3	96	38.3	0	0	---	0.00	29.881 
05:40	39.2	39.2	39.2	96	38.2	0	0	---	0.00	29.875 
05:45	39.2	39.2	39.2	96	38.2	0	0	---	0.00	29.880 
05:50	39.2	39.2	39.2	96	38.2	0	0	---	0.00	29.883 
05:55	39.2	39.2	39.2	96	38.2	0	0	---	0.00	29.881 
06:00	39.2	39.2	39.2	96	38.2	0	0	---	0.00	29.883 
06:05	39.3	39.3	39.3	96	38.3	0	0	---	0.00	29.887 
06:10	39.5	39.5	39.5	96	38.5	0	0	---	0.00	29.885 
06:15	39.9	39.9	39.9	96	38.9	0	0	---	0.00	29.886 
06:20	40.5	40.5	40.5	96	39.5	0	0	---	0.01	29.894 
06:25	41.2	41.2	41.2	96	40.1	0	0	---	0.00	29.895 
06:30	41.8	41.8	41.8	97	41.0	0	0	---	0.00	29.886 
06:35	42.5	42.5	42.5	97	41.7	0	0	---	0.00	29.889 
06:40	43.3	43.3	43.3	97	42.5	0	0	---	0.00	29.891 
06:45	44.2	44.2	44.2	97	43.4	0	0	---	0.00	29.883 
06:50	45.2	45.2	45.2	97	44.4	0	0	---	0.00	29.884 
06:55	45.8	45.8	45.8	97	45.0	0	0	---	0.00	29.890 
07:00	46.4	46.4	46.4	97	45.6	0	0	---	0.00	29.893 
07:05	46.8	46.8	46.8	97	46.0	0	0	---	0.00	29.895 
07:10	47.4	47.4	47.4	97	46.6	0	1	90	0.00	29.894 
07:15	47.7	47.7	47.7	97	46.9	0	1	90	0.00	29.896 
07:20	48.5	48.5	48.5	97	47.7	0	1	90	0.00	29.902 
07:25	48.8	48.8	48.8	97	48.0	0	1	90	0.00	29.898 
07:30	49.5	49.5	49.5	96	48.4	0	2	90	0.00	29.898 
07:35	50.1	50.1	50.1	95	48.7	0	1	90	0.00	29.894 
07:40	50.7	50.7	50.7	93	48.7	0	1	90	0.00	29.895 
07:45	51.6	51.6	51.6	90	48.8	0	1	90	0.00	29.895 
07:50	52.5	52.5	52.5	84	47.8	1	3	90	0.00	29.895 
07:55	53.5	53.5	53.5	81	47.8	0	2	90	0.00	29.890 
08:00	54.2	54.2	54.2	77	47.1	1	3	90	0.00	29.888 
08:05	54.8	54.8	54.8	72	45.9	2	4	90	0.00	29.887 
08:10	55.1	55.1	55.1	70	45.5	2	4	112	0.00	29.886 
08:15	55.3	55.3	55.3	71	46.1	2	4	112	0.00	29.882 
08:20	55.7	55.7	55.7	69	45.7	1	5	112	0.00	29.883 
08:25	56.0	56.0	56.0	70	46.4	1	5	90	0.00	29.886 
08:30	56.2	56.2	56.2	69	46.2	1	3	90	0.00	29.887 
08:35	56.5	56.5	56.5	69	46.5	1	3	90	0.00	29.888 
08:40	56.9	56.9	56.9	66	45.7	1	3	90	0.00	29.887 
08:45	57.6	57.6	57.6	69	47.5	0	1	90	0.00	29.891 
08:50	58.3	58.3	58.3	64	46.2	0	3	90	0.00	29.896 
08:55	58.9	58.9	58.9	61	45.5	1	3	90	0.00	29.896 
09:00	59.2	59.2	59.2	62	46.2	1	3	90	0.00	29.895 
09:05	59.5	59.5	59.5	64	47.3	0	1	90	0.00	29.894 
09:10	60.1	60.1	60.1	57	44.8	1	4	90	0.00	29.894 
09:15	60.1	60.1	60.1	56	44.3	0	3	90	0.00	29.895 
09:20	60.2	60.2	60.2	58	45.4	0	3	90	0.00	29.897 
09:25	60.1	60.1	60.1	57	44.8	0	2	90	0.00	29.901 
09:30	60.1	60.1	60.1	56	44.3	0	2	90	0.00	29.902 
09:35	60.2	60.2	60.2	54	43.5	0	2	90	0.00	29.903 
09:40	60.7	60.7	60.7	52	43.0	1	4	90	0.00	29.901 
09:45	61.2	61.2	61.2	54	44.4	1	4	112	0.00	29.900 
09:50	61.5	61.5	61.5	54	44.7	1	4	90	0.00	29.901 
09:55	61.6	61.6	61.6	51	43.3	1	4	90	0.00	29.902 
10:00	61.8	61.8	61.8	51	43.5	0	1	112	0.00	29.903 
10:05	61.6	61.6	61.6	52	43.8	1	4	68	0.00	29.908 
10:10	62.0	62.0	62.0	51	43.7	2	5	90	0.00	29.907 
10:15	61.8	61.8	61.8	49	42.4	1	4	112	0.00	29.907 
10:20	62.0	62.0	62.0	53	44.7	1	5	90	0.00	29.910 
10:25	62.3	62.3	62.3	48	42.4	1	6	90	0.00	29.912 
10:30	62.3	62.3	62.3	50	43.4	1	5	90	0.00	29.915 
10:35	62.4	62.4	62.4	53	45.0	1	4	112	0.00	29.917 
10:40	62.1	62.1	62.1	46	41.1	2	6	112	0.00	29.918 
10:45	62.4	62.4	62.4	50	43.5	1	5	90	0.00	29.918 
10:50	62.3	62.3	62.3	48	42.4	3	5	112	0.00	29.916 
10:55	62.4	62.4	62.4	49	43.0	2	5	90	0.00	29.912 
11:00	62.9	62.9	62.9	48	42.9	1	5	90	0.00	29.906 
11:05	62.9	62.9	62.9	46	41.8	2	6	90	0.00	29.910 
11:10	63.2	63.2	63.2	46	42.1	1	2	158	0.00	29.904 
11:15	63.5	63.5	63.5	46	42.3	1	4	112	0.00	29.901 
11:20	63.7	63.7	63.7	41	39.6	1	4	90	0.00	29.901 
11:25	63.2	63.2	63.2	45	41.5	3	6	90	0.00	29.902 
11:30	62.9	62.9	62.9	44	40.6	1	4	90	0.00	29.899 
11:35	63.2	63.2	63.2	40	38.5	2	5	90	0.00	29.902 
11:40	63.1	63.1	63.1	43	40.2	2	6	112	0.00	29.902 
11:45	63.4	63.4	63.4	42	39.9	1	3	112	0.00	29.897 
11:50	63.7	63.7	63.7	38	37.6	1	4	112	0.00	29.893 
11:55	63.7	63.7	63.7	41	39.6	3	6	90	0.00	29.892 
12:00	63.4	63.4	63.4	39	38.0	2	6	90	0.00	29.891 
12:05	63.7	63.7	63.7	45	42.0	2	5	112	0.00	29.889 
12:10	63.7	63.7	63.7	39	38.3	3	5	90	0.00	29.890 
12:15	63.7	63.7	63.7	38	37.6	2	6	90	0.00	29.889 
12:20	64.0	64.0	64.0	36	36.5	1	3	135	0.00	29.889 
12:25	64.5	64.5	64.5	39	39.0	1	3	135	0.00	29.888 
12:30	65.0	65.0	65.0	43	42.0	0	3	45	0.00	29.886 
12:35	64.7	64.7	64.7	37	37.8	3	6	90	0.00	29.881 
12:40	64.3	64.3	64.3	41	40.1	2	6	90	0.00	29.878 
12:45	64.5	64.5	64.5	36	36.9	2	9	112	0.00	29.874 
12:50	64.5	64.5	64.5	33	34.8	3	7	90	0.00	29.877 
12:55	64.7	64.7	64.7	34	35.7	2	4	112	0.00	29.875 
13:00	64.8	64.8	64.8	35	36.5	3	7	90	0.00	29.875 
13:05	64.7	64.7	64.7	34	35.7	2	6	90	0.00	29.879 
13:10	65.2	65.2	65.2	37	38.3	1	3	112	0.00	29.876 
13:15	65.8	65.8	65.8	31	34.3	1	4	112	0.00	29.876 
13:20	66.3	66.3	66.3	34	37.1	1	5	112	0.00	29.875 
13:25	66.4	66.4	66.4	39	40.7	1	4	135	0.00	29.876 
13:30	66.4	66.4	66.4	35	37.9	1	5	112	0.00	29.875 
13:35	66.6	66.6	66.6	34	37.3	2	6	112	0.00	29.875 
13:40	66.4	66.4	66.4	31	34.8	2	6	90	0.00	29.875 
13:45	66.1	66.1	66.1	29	32.9	1	5	112	0.00	29.878 
13:50	66.6	66.6	66.6	32	35.8	1	3	112	0.00	29.882 
13:55	66.4	66.4	66.4	33	36.4	3	6	90	0.00	29.881 
14:00	66.0	66.0	66.0	32	35.3	2	11	90	0.00	29.874 
14:05	66.0	66.0	66.0	37	39.0	2	11	68	0.00	29.876 
14:10	65.8	65.8	65.8	34	36.6	2	5	135	0.00	29.877 
14:15	65.5	65.5	65.5	36	37.8	2	6	112	0.00	29.876 
14:20	65.6	65.6	65.6	35	37.2	2	4	112	0.00	29.876 
14:25	65.8	65.8	65.8	37	38.8	1	3	112	0.00	29.875 
14:30	65.8	65.8	65.8	35	37.4	1	4	90	0.00	29.875 
14:35	65.8	65.8	65.8	37	38.8	1	4	112	0.00	29.874 
14:40	65.8	65.8	65.8	35	37.4	1	3	112	0.00	29.874 
14:45	65.8	65.8	65.8	33	35.9	1	3	112	0.00	29.874 
14:50	65.5	65.5	65.5	35	37.1	1	3	90	0.00	29.873 
14:55	65.5	65.5	65.5	36	37.8	1	3	270	0.00	29.873 
15:00	65.3	65.3	65.3	35	36.9	1	4	270	0.00	29.872 
15:05	65.0	65.0	65.0	37	38.1	1	3	270	0.00	29.871 
15:10	65.2	65.2	65.2	36	37.6	2	3	90	0.00	29.868 
15:15	65.5	65.5	65.5	36	37.8	1	3	90	0.00	29.866 
15:20	65.8	65.8	65.8	35	37.4	1	6	270	0.00	29.863 
15:25	66.3	66.3	66.3	34	37.1	1	5	270	0.00	29.858 
15:30	66.3	66.3	66.3	35	37.8	2	5	135	0.00	29.855 
15:35	66.1	66.1	66.1	34	36.9	2	5	90	0.00	29.851 
15:40	66.1	66.1	66.1	35	37.6	3	8	112	0.00	29.847 
15:45	66.3	66.3	66.3	34	37.1	2	5	112	0.00	29.849 
15:50	65.6	65.6	65.6	35	37.2	1	4	90	0.00	29.848 
15:55	65.3	65.3	65.3	36	37.7	2	5	90	0.00	29.849 
16:00	65.5	65.5	65.5	38	39.2	2	6	112	0.00	29.847 
16:05	65.3	65.3	65.3	35	36.9	3	6	90	0.00	29.850 
16:10	65.3	65.3	65.3	39	39.7	2	4	90	0.00	29.849 
16:15	65.3	65.3	65.3	40	40.4	2	5	90	0.00	29.846 
16:20	65.3	65.3	65.3	37	38.4	0	5	112	0.00	29.843 
16:25	65.5	65.5	65.5	37	38.5	3	8	112	0.00	29.842 
16:30	65.6	65.6	65.6	36	37.9	1	5	112	0.00	29.840 
16:35	65.0	65.0	65.0	36	37.4	3	5	90	0.00	29.836 
16:40	64.8	64.8	64.8	35	36.5	2	4	112	0.00	29.829 
16:45	64.7	64.7	64.7	35	36.4	2	4	90	0.00	29.829 
16:50	64.7	64.7	64.7	34	35.7	2	4	112	0.00	29.829 
16:55	64.5	64.5	64.5	33	34.8	2	7	112	0.00	29.827 
17:00	64.3	64.3	64.3	35	36.1	2	6	112	0.00	29.821 
17:05	64.2	64.2	64.2	35	36.0	1	4	90	0.00	29.820 
17:10	64.3	64.3	64.3	33	34.6	0	2	135	0.00	29.818 
17:15	64.3	64.3	64.3	33	34.6	3	6	112	0.00	29.816 
17:20	64.5	64.5	64.5	33	34.8	1	4	90	0.00	29.812 
17:25	64.3	64.3	64.3	34	35.3	2	4	90	0.00	29.803 
17:30	64.0	64.0	64.0	37	37.2	1	3	135	0.00	29.803 
17:35	63.7	63.7	63.7	38	37.6	1	4	135	0.00	29.806 
17:40	63.5	63.5	63.5	38	37.4	1	4	112	0.00	29.801 
17:45	63.5	63.5	63.5	38	37.4	1	4	68	0.00	29.799 
17:50	63.4	63.4	63.4	37	36.7	2	6	112	0.00	29.801 
17:55	63.2	63.2	63.2	37	36.5	2	4	112	0.00	29.802 
18:00	63.1	63.1	63.1	39	37.7	1	6	90	0.00	29.809 
18:05	62.9	62.9	62.9	39	37.6	1	4	90	0.00	29.809 
18:10	62.7	62.7	62.7	39	37.4	1	2	112	0.00	29.818 
18:15	62.6	62.6	62.6	39	37.3	1	3	135	0.00	29.817 
18:20	62.6	62.6	62.6	39	37.3	1	5	135	0.00	29.820 
18:25	62.6	62.6	62.6	39	37.3	1	5	135	0.00	29.823 
18:30	62.4	62.4	62.4	39	37.1	1	4	112	0.00	29.822 
18:35	62.4	62.4	62.4	42	39.0	1	4	112	0.00	29.817 
18:40	62.3	62.3	62.3	42	38.9	0	2	112	0.00	29.817 
18:45	62.1	62.1	62.1	44	39.9	0	1	112	0.00	29.820 
18:50	62.0	62.0	62.0	44	39.8	0	1	112	0.00	29.823 
18:55	61.8	61.8	61.8	45	40.2	0	0	---	0.00	29.824 
19:00	61.6	61.6	61.6	45	40.0	0	1	112	0.00	29.825 
19:05	61.5	61.5	61.5	47	41.1	0	1	112	0.00	29.818 
19:10	61.3	61.3	61.3	47	40.9	0	1	112	0.00	29.816 
19:15	61.2	61.2	61.2	49	41.9	0	1	112	0.00	29.817 
19:20	61.0	61.0	61.0	48	41.2	1	2	112	0.00	29.812 
19:25	60.9	60.9	60.9	48	41.1	0	1	112	0.00	29.808 
19:30	60.7	60.7	60.7	49	41.4	0	1	112	0.00	29.809 
19:35	60.5	60.5	60.5	50	41.8	0	2	112	0.00	29.803 
19:40	60.4	60.4	60.4	50	41.7	0	1	112	0.00	29.800 
19:45	60.2	60.2	60.2	50	41.5	1	4	112	0.00	29.795 
19:50	60.2	60.2	60.2	50	41.5	1	3	112	0.00	29.789 
19:55	60.2	60.2	60.2	51	42.0	1	3	112	0.00	29.787 
20:00	59.9	59.9	59.9	51	41.7	2	3	112	0.00	29.773 
20:05	59.9	59.9	59.9	51	41.7	3	6	90	0.00	29.756 
20:10	59.8	59.8	59.8	51	41.6	2	5	112	0.00	29.761 
20:15	59.8	59.8	59.8	52	42.1	1	3	112	0.00	29.769 
20:20	59.6	59.6	59.6	52	42.0	2	5	112	0.00	29.768 
20:25	59.8	59.8	59.8	52	42.1	3	7	90	0.00	29.761 
20:30	59.6	59.6	59.6	52	42.0	2	6	112	0.00	29.761 
20:35	59.5	59.5	59.5	52	41.9	1	4	112	0.00	29.769 
20:40	59.5	59.5	59.5	52	41.9	1	3	135	0.00	29.770 
20:45	59.5	59.5	59.5	53	42.4	1	3	135	0.00	29.768 
20:50	59.3	59.3	59.3	53	42.2	1	2	90	0.00	29.766 
20:55	59.2	59.2	59.2	53	42.1	1	3	135	0.00	29.759 
21:00	59.2	59.2	59.2	53	42.1	1	4	112	0.00	29.754 
21:05	59.2	59.2	59.2	54	42.6	1	4	112	0.00	29.748 
21:10	59.0	59.0	59.0	55	42.9	2	4	112	0.00	29.739 
21:15	58.9	58.9	58.9	56	43.2	2	4	90	0.00	29.736 
21:20	58.7	58.7	58.7	57	43.5	1	4	90	0.00	29.736 
21:25	58.6	58.6	58.6	57	43.4	1	4	112	0.00	29.732 
21:30	58.3	58.3	58.3	57	43.1	2	5	90	0.00	29.721 
21:35	58.3	58.3	58.3	57	43.1	2	5	90	0.00	29.719 
21:40	58.1	58.1	58.1	57	42.9	3	6	90	0.00	29.710 
21:45	58.1	58.1	58.1	57	42.9	3	6	90	0.00	29.705 
21:50	58.1	58.1	58.1	57	42.9	3	7	90	0.00	29.701 
21:55	58.1	58.1	58.1	57	42.9	5	10	90	0.00	29.689 
22:00	58.1	58.1	58.1	57	42.9	4	7	90	0.00	29.689 
22:05	58.1	58.1	58.1	58	43.4	3	9	90	0.00	29.688 
22:10	58.0	58.0	58.0	58	43.3	3	5	90	0.00	29.689 
22:15	58.0	58.0	58.0	59	43.8	3	6	112	0.00	29.685 
22:20	57.8	57.8	57.8	58	43.1	4	7	90	0.00	29.675 
22:25	58.0	58.0	58.0	58	43.3	5	10	90	0.00	29.671 
22:30	58.0	58.0	58.0	57	42.9	3	6	112	0.00	29.668 
22:35	58.0	58.0	58.0	58	43.3	3	11	90	0.00	29.666 
22:40	58.0	58.0	58.0	58	43.3	3	9	90	0.00	29.671 
22:45	57.8	57.8	57.8	58	43.1	3	5	112	0.00	29.669 
22:50	57.6	57.6	57.6	59	43.4	1	4	112	0.00	29.672 
22:55	57.5	57.5	57.5	59	43.3	2	4	112	0.00	29.673 
23:00	57.5	57.5	57.5	59	43.3	2	5	112	0.00	29.676 
23:05	57.3	57.3	57.3	60	43.5	2	7	112	0.00	29.674 
23:10	57.2	57.2	57.2	61	43.9	1	4	112	0.00	29.673 
23:15	57.0	57.0	57.0	62	44.1	1	3	112	0.00	29.669 
23:20	57.0	57.0	57.0	62	44.1	1	4	112	0.00	29.661 
23:25	56.9	56.9	56.9	62	44.0	1	4	112	0.00	29.662 
23:30	56.7	56.7	56.7	62	43.8	1	6	90	0.00	29.662 
23:35	56.6	56.6	56.6	63	44.2	2	4	112	0.00	29.658 
23:40	56.6	56.6	56.6	63	44.2	2	5	90	0.00	29.657 
23:45	56.6	56.6	56.6	62	43.7	2	4	112	0.00	29.656 
23:50	56.6	56.6	56.6	62	43.7	3	7	112	0.00	29.653 
23:55	56.6	56.6	56.6	62	43.7	2	5	112	0.00	29.649 

CoCoRaHS
IN-AL-39
A2 Web Hosting
Creative Commons License
GoDaddy
Look for:

loaded 2017-10-17 00:36:15 • last modified 2010-11-18 10:43:29
Privacy PolicyDisclaimer
• wx.awcolley.com is powered by PmWiki v.2002016 •
• all content (unless otherwise noted) © 2017 A W Colley